createdAt,value
2023-03-19T00:01:35.292Z,18.50
2023-03-19T00:04:01.793Z,18.60
2023-03-19T00:06:28.296Z,20.05
2023-03-19T00:08:54.734Z,18.70
2023-03-19T00:11:21.270Z,17.48
2023-03-19T00:13:49.195Z,16.38
2023-03-19T00:16:15.759Z,16.00
2023-03-19T00:18:42.118Z,16.17
2023-03-19T00:21:09.045Z,14.55
2023-03-19T00:23:35.791Z,16.33
2023-03-19T00:26:02.209Z,18.20
2023-03-19T00:28:28.693Z,16.88
2023-03-19T00:30:56.630Z,18.67
2023-03-19T00:33:23.323Z,15.70
2023-03-19T00:35:49.822Z,18.50
2023-03-19T00:38:16.698Z,17.15
2023-03-19T00:40:43.337Z,15.95
2023-03-19T00:43:09.844Z,16.98
2023-03-19T00:45:36.280Z,17.63
2023-03-19T00:48:04.604Z,15.82
2023-03-19T00:50:31.309Z,12.80
2023-03-19T00:52:57.854Z,11.95
2023-03-19T00:55:24.258Z,14.23
2023-03-19T00:57:50.977Z,16.77
2023-03-19T01:00:18.233Z,14.60
2023-03-19T01:02:44.814Z,16.25
2023-03-19T01:05:12.917Z,12.45
2023-03-19T01:07:39.396Z,17.50
2023-03-19T01:10:07.617Z,16.30
2023-03-19T01:12:34.270Z,13.40
2023-03-19T01:15:01.064Z,16.38
2023-03-19T01:17:27.620Z,14.60
2023-03-19T01:19:54.203Z,15.65
2023-03-19T01:22:22.001Z,13.43
2023-03-19T01:24:54.408Z,14.75
2023-03-19T01:27:21.298Z,12.80
2023-03-19T01:29:48.727Z,14.15
2023-03-19T01:32:24.942Z,14.48
2023-03-19T01:35:07.264Z,15.35
2023-03-19T01:37:35.139Z,12.10
2023-03-19T01:40:01.663Z,17.15
2023-03-19T01:42:30.128Z,12.23
2023-03-19T01:45:32.142Z,14.90
2023-03-19T01:48:27.375Z,12.70
2023-03-19T01:51:02.156Z,14.18
2023-03-19T01:53:49.997Z,14.80
2023-03-19T01:56:26.903Z,17.25
2023-03-19T01:59:10.745Z,13.82
2023-03-19T02:02:03.780Z,13.80
2023-03-19T02:04:35.053Z,16.13
2023-03-19T02:07:03.557Z,16.00
2023-03-19T02:09:32.055Z,13.52
2023-03-19T02:12:00.452Z,16.35
2023-03-19T02:14:27.540Z,13.77
2023-03-19T02:16:54.502Z,15.55
2023-03-19T02:19:29.001Z,15.73
2023-03-19T02:21:55.911Z,15.45
2023-03-19T02:24:28.326Z,16.05
2023-03-19T02:27:04.911Z,17.67
2023-03-19T02:29:31.682Z,19.42
2023-03-19T02:32:01.140Z,16.05
2023-03-19T02:34:37.108Z,15.35
2023-03-19T02:37:08.733Z,15.55
2023-03-19T02:39:41.870Z,13.90
2023-03-19T02:42:12.052Z,17.30
2023-03-19T02:44:38.734Z,15.13
2023-03-19T02:47:05.835Z,20.83
2023-03-19T02:49:32.296Z,16.90
2023-03-19T02:51:59.194Z,15.73
2023-03-19T02:54:25.724Z,15.95
2023-03-19T02:56:52.128Z,13.63
2023-03-19T02:59:20.306Z,14.90
2023-03-19T03:01:46.814Z,14.60
2023-03-19T03:04:13.387Z,14.02
2023-03-19T03:06:40.010Z,16.00
2023-03-19T03:09:06.926Z,16.52
2023-03-19T03:11:33.421Z,12.98
2023-03-19T03:14:01.442Z,13.90
2023-03-19T03:16:29.333Z,15.13
2023-03-19T03:18:55.947Z,13.85
2023-03-19T03:21:22.826Z,14.20
2023-03-19T03:23:49.589Z,13.95
2023-03-19T03:26:16.134Z,16.02
2023-03-19T03:28:42.699Z,16.33
2023-03-19T03:31:09.452Z,15.50
2023-03-19T03:33:39.805Z,14.00
2023-03-19T03:36:06.788Z,13.40
2023-03-19T03:38:33.979Z,13.82
2023-03-19T03:41:00.481Z,13.60
2023-03-19T03:43:27.045Z,11.60
2023-03-19T03:45:53.650Z,14.23
2023-03-19T03:48:21.161Z,13.52
2023-03-19T03:50:49.632Z,13.38
2023-03-19T03:53:20.082Z,15.05
2023-03-19T03:55:46.549Z,16.02
2023-03-19T03:58:13.469Z,14.27
2023-03-19T04:00:40.402Z,15.20
2023-03-19T04:03:06.943Z,17.73
2023-03-19T04:05:33.382Z,15.30
2023-03-19T04:08:01.324Z,13.73
2023-03-19T04:10:28.048Z,16.38
2023-03-19T04:12:54.656Z,13.57
2023-03-19T04:15:21.320Z,14.50
2023-03-19T04:17:48.264Z,15.52
2023-03-19T04:20:16.467Z,15.50
2023-03-19T04:22:42.871Z,15.90
2023-03-19T04:25:11.534Z,14.52
2023-03-19T04:27:39.082Z,12.25
2023-03-19T04:30:08.512Z,11.80
2023-03-19T04:32:35.368Z,15.77
2023-03-19T04:35:02.113Z,13.30
2023-03-19T04:37:29.423Z,12.23
2023-03-19T04:39:56.334Z,13.27
2023-03-19T04:42:24.148Z,13.93
2023-03-19T04:44:57.905Z,17.13
2023-03-19T04:47:24.367Z,15.85
2023-03-19T04:52:22.998Z,16.35
2023-03-19T04:54:49.897Z,14.38
2023-03-19T04:57:17.005Z,13.75
2023-03-19T04:59:46.962Z,13.48
2023-03-19T05:02:15.134Z,17.15
2023-03-19T05:04:42.287Z,14.68
2023-03-19T05:07:12.724Z,15.13
2023-03-19T05:09:40.726Z,14.57
2023-03-19T05:12:07.473Z,13.63
2023-03-19T05:14:40.400Z,13.77
2023-03-19T05:17:20.736Z,15.02
2023-03-19T05:20:00.639Z,14.52
2023-03-19T05:22:27.307Z,13.57
2023-03-19T05:24:54.492Z,13.68
2023-03-19T05:27:21.183Z,16.42
2023-03-19T05:29:53.486Z,13.30
2023-03-19T05:32:51.260Z,17.63
2023-03-19T05:35:33.916Z,14.90
2023-03-19T05:38:02.404Z,12.55
2023-03-19T05:40:29.206Z,14.38
2023-03-19T05:42:57.926Z,16.25
2023-03-19T05:45:28.499Z,16.75
2023-03-19T05:47:59.927Z,15.73
2023-03-19T05:50:32.251Z,15.88
2023-03-19T05:53:17.320Z,15.30
2023-03-19T05:55:53.540Z,15.63
2023-03-19T05:58:23.107Z,17.65
2023-03-19T06:00:49.718Z,14.35
2023-03-19T06:03:17.590Z,16.83
2023-03-19T06:05:52.327Z,13.88
2023-03-19T06:08:35.841Z,14.32
2023-03-19T06:11:24.669Z,18.08
2023-03-19T06:14:06.872Z,17.27
2023-03-19T06:16:37.881Z,16.17
2023-03-19T06:19:06.539Z,15.60
2023-03-19T06:21:33.112Z,16.30
2023-03-19T06:24:02.521Z,16.58
2023-03-19T06:26:34.031Z,15.50
2023-03-19T06:29:03.831Z,15.30
2023-03-19T06:31:30.441Z,16.27
2023-03-19T06:34:03.104Z,14.13
2023-03-19T06:36:39.335Z,16.85
2023-03-19T06:39:08.516Z,15.27
2023-03-19T06:41:34.943Z,17.42
2023-03-19T06:44:11.618Z,14.02
2023-03-19T06:46:38.120Z,15.07
2023-03-19T06:49:04.669Z,14.55
2023-03-19T06:51:33.666Z,13.45
2023-03-19T06:54:04.042Z,12.73
2023-03-19T06:58:56.975Z,17.20
2023-03-19T07:01:23.666Z,15.23
2023-03-19T07:03:50.253Z,14.43
2023-03-19T07:06:16.784Z,12.75
2023-03-19T07:08:43.214Z,18.42
2023-03-19T07:11:11.009Z,14.23
2023-03-19T07:13:37.530Z,15.95
2023-03-19T07:16:04.580Z,11.93
2023-03-19T07:18:32.325Z,13.23
2023-03-19T07:20:58.762Z,14.65
2023-03-19T07:23:27.300Z,13.27
2023-03-19T07:25:53.951Z,13.65
2023-03-19T07:28:21.775Z,14.07
2023-03-19T07:30:48.307Z,13.60
2023-03-19T07:33:14.792Z,15.55
2023-03-19T07:35:41.399Z,11.60
2023-03-19T07:38:07.934Z,13.10
2023-03-19T07:40:34.624Z,12.98
2023-03-19T07:43:02.535Z,12.77
2023-03-19T07:45:33.104Z,16.30
2023-03-19T07:48:02.659Z,15.45
2023-03-19T07:50:30.742Z,11.32
2023-03-19T07:53:00.516Z,12.73
2023-03-19T07:55:30.826Z,11.10
2023-03-19T07:57:57.312Z,11.57
2023-03-19T08:00:31.448Z,12.00
2023-03-19T08:02:59.498Z,12.02
2023-03-19T08:05:25.966Z,10.57
2023-03-19T08:07:52.604Z,12.18
2023-03-19T08:10:22.190Z,12.48
2023-03-19T08:12:48.662Z,11.32
2023-03-19T08:15:15.300Z,11.10
2023-03-19T08:17:41.901Z,10.90
2023-03-19T08:20:13.246Z,11.32
2023-03-19T08:22:39.888Z,11.05
2023-03-19T08:25:07.850Z,13.07
2023-03-19T08:27:34.459Z,12.55
2023-03-19T08:30:03.734Z,14.10
2023-03-19T08:32:32.782Z,10.50
2023-03-19T08:34:59.367Z,10.98
2023-03-19T08:37:27.278Z,10.43
2023-03-19T08:39:56.711Z,10.38
2023-03-19T08:42:23.198Z,12.32
2023-03-19T08:44:50.515Z,9.73
2023-03-19T08:47:17.194Z,13.18
2023-03-19T08:49:43.913Z,11.90
2023-03-19T08:52:10.867Z,10.35
2023-03-19T08:54:38.645Z,11.82
2023-03-19T08:57:05.333Z,10.20
2023-03-19T08:59:34.030Z,10.98
2023-03-19T09:02:01.537Z,11.90
2023-03-19T09:04:28.902Z,8.45
2023-03-19T09:07:14.037Z,10.25
2023-03-19T09:09:48.264Z,10.70
2023-03-19T09:12:16.791Z,11.52
2023-03-19T09:14:43.783Z,9.95
2023-03-19T09:17:11.030Z,12.38
2023-03-19T09:19:37.704Z,12.45
2023-03-19T09:22:04.884Z,10.73
2023-03-19T09:24:31.379Z,14.80
2023-03-19T09:26:59.369Z,15.77
2023-03-19T09:29:25.904Z,9.63
2023-03-19T09:31:52.329Z,9.57
2023-03-19T09:34:18.758Z,12.13
2023-03-19T09:36:45.308Z,8.35
2023-03-19T09:39:11.739Z,9.57
2023-03-19T09:41:49.471Z,10.57
2023-03-19T09:44:21.192Z,11.45
2023-03-19T09:46:53.548Z,13.18
2023-03-19T09:49:23.900Z,9.30
2023-03-19T09:51:53.111Z,9.23
2023-03-19T09:54:30.913Z,9.60
2023-03-19T09:57:04.313Z,10.25
2023-03-19T09:59:32.670Z,11.55
2023-03-19T10:02:24.148Z,10.48
2023-03-19T10:05:03.307Z,12.80
2023-03-19T10:07:43.690Z,10.93
2023-03-19T10:10:34.228Z,8.40
2023-03-19T10:13:13.009Z,8.55
2023-03-19T10:15:42.548Z,9.63
2023-03-19T10:18:12.358Z,7.88
2023-03-19T10:20:47.119Z,8.27
2023-03-19T10:23:37.212Z,9.88
2023-03-19T10:26:09.116Z,11.95
2023-03-19T10:28:36.315Z,10.57
2023-03-19T10:31:17.915Z,8.45
2023-03-19T10:33:51.155Z,9.85
2023-03-19T10:36:24.304Z,9.27
2023-03-19T10:38:50.839Z,12.02
2023-03-19T10:41:33.293Z,11.57
2023-03-19T10:44:02.550Z,10.65
2023-03-19T10:46:38.539Z,6.80
2023-03-19T10:49:05.089Z,11.95
2023-03-19T10:51:34.031Z,7.38
2023-03-19T10:54:01.264Z,9.10
2023-03-19T10:56:33.221Z,6.85
2023-03-19T10:59:20.126Z,7.38
2023-03-19T11:01:48.328Z,7.28
2023-03-19T11:04:18.674Z,10.18
2023-03-19T11:06:49.672Z,8.80
2023-03-19T11:09:23.213Z,9.50
2023-03-19T11:11:51.304Z,8.60
2023-03-19T11:14:21.030Z,8.20
2023-03-19T11:16:54.781Z,9.57
2023-03-19T11:19:23.016Z,7.38
2023-03-19T11:22:09.575Z,5.95
2023-03-19T11:24:37.516Z,5.80
2023-03-19T11:27:05.074Z,5.95
2023-03-19T11:29:37.569Z,9.13
2023-03-19T11:32:21.893Z,7.47
2023-03-19T11:34:53.944Z,7.53
2023-03-19T11:37:27.822Z,7.88
2023-03-19T11:40:01.824Z,7.72
2023-03-19T11:42:50.215Z,7.80
2023-03-19T11:45:28.376Z,5.53
2023-03-19T11:48:12.535Z,5.75
2023-03-19T11:50:46.539Z,7.03
2023-03-19T11:53:25.063Z,7.90
2023-03-19T11:56:02.413Z,5.68
2023-03-19T11:59:02.495Z,5.88
2023-03-19T12:01:45.564Z,5.60
2023-03-19T12:04:32.348Z,6.07
2023-03-19T12:07:11.679Z,8.40
2023-03-19T12:09:46.993Z,9.25
2023-03-19T12:12:26.642Z,6.25
2023-03-19T12:15:09.919Z,6.30
2023-03-19T12:17:53.534Z,4.47
2023-03-19T12:20:32.931Z,6.90
2023-03-19T12:23:17.430Z,5.05
2023-03-19T12:26:06.008Z,5.72
2023-03-19T12:28:43.686Z,5.95
2023-03-19T12:31:30.091Z,6.22
2023-03-19T12:34:15.167Z,6.28
2023-03-19T12:36:54.813Z,4.90
2023-03-19T12:39:28.710Z,3.85
2023-03-19T12:42:01.880Z,5.78
2023-03-19T12:44:40.648Z,5.82
2023-03-19T12:47:14.034Z,3.22
2023-03-19T12:49:50.857Z,3.40
2023-03-19T12:52:25.369Z,4.03
2023-03-19T12:55:04.640Z,4.55
2023-03-19T12:57:46.829Z,3.13
2023-03-19T13:00:21.561Z,4.68
2023-03-19T13:02:53.455Z,3.72
2023-03-19T13:05:34.910Z,2.83
2023-03-19T13:08:14.938Z,2.30
2023-03-19T13:10:43.792Z,4.35
2023-03-19T13:13:26.322Z,3.70
2023-03-19T13:15:57.382Z,2.58
2023-03-19T13:18:38.359Z,3.85
2023-03-19T13:21:23.742Z,3.25
2023-03-19T13:24:08.390Z,2.63
2023-03-19T13:26:36.039Z,2.92
2023-03-19T13:29:11.031Z,3.10
2023-03-19T13:31:38.387Z,3.53
2023-03-19T13:34:08.070Z,3.42
2023-03-19T13:36:38.899Z,5.22
2023-03-19T13:39:14.174Z,4.15
2023-03-19T13:42:22.267Z,2.47
2023-03-19T13:44:51.352Z,2.78
2023-03-19T13:47:42.249Z,6.78
2023-03-19T13:50:28.613Z,3.90
2023-03-19T13:53:19.585Z,2.75
2023-03-19T13:55:53.777Z,4.28
2023-03-19T13:58:25.094Z,3.30
2023-03-19T14:01:06.993Z,5.88
2023-03-19T14:03:52.110Z,4.32
2023-03-19T14:06:37.227Z,5.10
2023-03-19T14:09:44.487Z,5.32
2023-03-19T14:14:55.218Z,4.00
2023-03-19T14:17:25.200Z,3.70
2023-03-19T14:22:35.807Z,5.72
2023-03-19T14:25:15.003Z,4.25
2023-03-19T14:27:47.532Z,6.72
2023-03-19T14:30:25.708Z,3.88
2023-03-19T14:32:56.913Z,4.38
2023-03-19T14:35:40.204Z,3.97
2023-03-19T14:38:14.902Z,4.57
2023-03-19T14:40:46.727Z,5.00
2023-03-19T14:43:32.826Z,5.53
2023-03-19T14:46:19.858Z,5.35
2023-03-19T14:49:10.135Z,6.07
2023-03-19T14:51:51.681Z,5.30
2023-03-19T14:54:31.714Z,3.75
2023-03-19T14:57:00.457Z,5.00
2023-03-19T14:59:40.430Z,3.72
2023-03-19T15:02:20.765Z,3.85
2023-03-19T15:04:48.572Z,3.88
2023-03-19T15:07:19.981Z,4.13
2023-03-19T15:10:14.129Z,4.68
2023-03-19T15:13:22.636Z,5.88
2023-03-19T15:16:13.253Z,5.95
2023-03-19T15:18:40.096Z,3.78
2023-03-19T15:21:07.009Z,4.80
2023-03-19T15:23:34.172Z,5.53
2023-03-19T15:26:05.473Z,4.38
2023-03-19T15:28:44.758Z,5.90
2023-03-19T15:31:31.048Z,4.03
2023-03-19T15:34:19.630Z,4.13
2023-03-19T15:36:47.526Z,11.80
2023-03-19T15:39:17.611Z,5.95
2023-03-19T15:44:17.266Z,4.05
2023-03-19T15:46:46.600Z,2.97
2023-03-19T15:49:17.717Z,8.13
2023-03-19T15:51:48.337Z,3.75
2023-03-19T15:54:16.018Z,4.57
2023-03-19T15:56:42.426Z,5.18
2023-03-19T15:59:10.140Z,4.15
2023-03-19T16:01:39.563Z,3.80
2023-03-19T16:04:12.703Z,4.70
2023-03-19T16:06:42.069Z,4.30
2023-03-19T16:09:22.684Z,5.05
2023-03-19T16:11:49.775Z,3.88
2023-03-19T16:14:24.273Z,4.97
2023-03-19T16:16:52.008Z,4.80
2023-03-19T16:19:34.726Z,4.68
2023-03-19T16:22:12.576Z,6.13
2023-03-19T16:24:45.094Z,3.92
2023-03-19T16:27:16.461Z,5.32
2023-03-19T16:29:45.848Z,4.72
2023-03-19T16:32:19.493Z,4.75
2023-03-19T16:34:48.890Z,5.00
2023-03-19T16:37:41.403Z,5.45
2023-03-19T16:40:44.699Z,5.57
2023-03-19T16:43:16.220Z,4.63
2023-03-19T16:45:43.622Z,4.63
2023-03-19T16:48:10.126Z,4.70
2023-03-19T16:50:40.600Z,4.38
2023-03-19T16:53:18.304Z,4.70
2023-03-19T16:55:44.852Z,4.45
2023-03-19T16:58:15.028Z,3.78
2023-03-19T17:03:12.339Z,4.30
2023-03-19T17:08:06.573Z,4.05
2023-03-19T17:10:35.209Z,7.35
2023-03-19T17:13:04.758Z,3.90
2023-03-19T17:15:35.417Z,3.10
2023-03-19T17:18:03.683Z,4.85
2023-03-19T17:20:33.479Z,4.03
2023-03-19T17:23:09.720Z,4.93
2023-03-19T17:25:38.240Z,3.88
2023-03-19T17:28:04.936Z,4.50
2023-03-19T17:30:31.752Z,11.90
2023-03-19T17:32:58.479Z,5.55
2023-03-19T17:35:25.207Z,6.70
2023-03-19T17:37:51.806Z,3.42
2023-03-19T17:40:21.869Z,4.55
2023-03-19T17:42:49.016Z,5.65
2023-03-19T17:45:17.337Z,3.47
2023-03-19T17:47:48.381Z,3.78
2023-03-19T17:50:27.068Z,4.55
2023-03-19T17:52:53.818Z,3.65
2023-03-19T17:55:24.575Z,4.68
2023-03-19T17:57:51.932Z,4.13
2023-03-19T18:00:21.256Z,3.65
2023-03-19T18:02:50.830Z,4.60
2023-03-19T18:05:19.711Z,4.85
2023-03-19T18:07:47.918Z,5.85
2023-03-19T18:10:16.575Z,6.90
2023-03-19T18:12:45.031Z,5.50
2023-03-19T18:15:15.960Z,6.75
2023-03-19T18:17:46.383Z,8.55
2023-03-19T18:20:14.242Z,12.15
2023-03-19T18:22:41.007Z,7.72
2023-03-19T18:25:15.155Z,8.43
2023-03-19T18:27:41.687Z,7.22
2023-03-19T18:30:11.513Z,7.90
2023-03-19T18:32:39.142Z,8.27
2023-03-19T18:35:10.198Z,8.10
2023-03-19T18:37:36.727Z,8.50
2023-03-19T18:40:03.664Z,8.80
2023-03-19T18:42:30.214Z,6.90
2023-03-19T18:44:56.745Z,8.35
2023-03-19T18:47:24.646Z,8.18
2023-03-19T18:49:51.299Z,9.77
2023-03-19T18:52:19.620Z,5.88
2023-03-19T18:54:46.253Z,9.40
2023-03-19T18:57:14.610Z,5.88
2023-03-19T18:59:41.354Z,6.90
2023-03-19T19:02:30.073Z,7.30
2023-03-19T19:04:57.950Z,8.55
2023-03-19T19:07:24.400Z,9.13
2023-03-19T19:09:50.890Z,8.88
2023-03-19T19:12:18.631Z,6.93
2023-03-19T19:14:45.596Z,8.05
2023-03-19T19:17:16.317Z,9.00
2023-03-19T19:19:43.139Z,10.63
2023-03-19T19:22:13.925Z,8.23
2023-03-19T19:24:40.422Z,7.53
2023-03-19T19:27:11.111Z,10.60
2023-03-19T19:29:37.664Z,6.97
2023-03-19T19:32:16.944Z,7.82
2023-03-19T19:34:43.403Z,6.55
2023-03-19T19:37:16.581Z,9.10
2023-03-19T19:39:43.005Z,7.68
2023-03-19T19:42:12.160Z,8.68
2023-03-19T19:44:39.670Z,7.93
2023-03-19T19:47:13.225Z,6.50
2023-03-19T19:49:39.837Z,8.13
2023-03-19T19:52:12.611Z,6.88
2023-03-19T19:54:40.518Z,6.20
2023-03-19T19:57:15.494Z,7.32
2023-03-19T19:59:42.605Z,8.02
2023-03-19T20:02:19.560Z,8.75
2023-03-19T20:04:46.003Z,8.60
2023-03-19T20:07:12.441Z,7.38
2023-03-19T20:09:40.578Z,8.55
2023-03-19T20:12:21.671Z,9.13
2023-03-19T20:14:49.419Z,10.20
2023-03-19T20:17:17.163Z,10.48
2023-03-19T20:19:43.755Z,10.88
2023-03-19T20:22:10.690Z,9.95
2023-03-19T20:24:37.144Z,9.85
2023-03-19T20:27:12.156Z,9.68
2023-03-19T20:29:39.748Z,10.20
2023-03-19T20:32:24.558Z,8.82
2023-03-19T20:34:51.034Z,8.50
2023-03-19T20:37:17.499Z,8.20
2023-03-19T20:39:44.037Z,6.57
2023-03-19T20:42:14.789Z,10.68
2023-03-19T20:44:41.759Z,7.88
2023-03-19T20:47:14.913Z,8.70
2023-03-19T20:49:41.421Z,7.60
2023-03-19T20:52:08.702Z,10.00
2023-03-19T20:54:35.110Z,7.43
2023-03-19T20:57:01.586Z,8.57
2023-03-19T20:59:29.528Z,7.53
2023-03-19T21:01:56.193Z,7.13
2023-03-19T21:04:22.729Z,7.03
2023-03-19T21:06:53.403Z,6.60
2023-03-19T21:09:20.766Z,7.68
2023-03-19T21:11:47.351Z,9.05
2023-03-19T21:14:14.917Z,7.10
2023-03-19T21:16:42.909Z,7.15
2023-03-19T21:19:09.339Z,8.10
2023-03-19T21:21:37.182Z,6.03
2023-03-19T21:24:06.893Z,5.78
2023-03-19T21:26:36.897Z,6.18
2023-03-19T21:29:06.017Z,5.85
2023-03-19T21:31:32.506Z,5.03
2023-03-19T21:34:00.510Z,4.88
2023-03-19T21:36:26.954Z,4.97
2023-03-19T21:38:53.510Z,5.43
2023-03-19T21:41:23.262Z,4.00
2023-03-19T21:43:53.019Z,6.07
2023-03-19T21:46:24.943Z,4.78
2023-03-19T21:48:52.357Z,4.32
2023-03-19T21:51:21.109Z,6.05
2023-03-19T21:53:47.677Z,4.00
2023-03-19T21:56:20.024Z,3.70
2023-03-19T21:58:46.778Z,4.32
2023-03-19T22:01:17.142Z,3.85
2023-03-19T22:03:43.859Z,4.20
2023-03-19T22:06:10.358Z,6.35
2023-03-19T22:08:38.500Z,5.18
2023-03-19T22:11:13.840Z,4.28
2023-03-19T22:13:41.823Z,4.00
2023-03-19T22:16:17.344Z,5.43
2023-03-19T22:18:43.919Z,3.90
2023-03-19T22:21:13.620Z,4.70
2023-03-19T22:23:41.452Z,5.80
2023-03-19T22:26:24.720Z,7.75
2023-03-19T22:28:51.230Z,11.52
2023-03-19T22:31:17.910Z,10.35
2023-03-19T22:33:44.600Z,11.02
2023-03-19T22:36:12.553Z,11.07
2023-03-19T22:38:39.003Z,8.65
2023-03-19T22:41:14.846Z,8.35
2023-03-19T22:43:42.429Z,9.38
2023-03-19T22:46:11.809Z,8.38
2023-03-19T22:48:38.575Z,7.80
2023-03-19T22:51:05.316Z,5.18
2023-03-19T22:53:33.754Z,6.32
2023-03-19T22:56:00.569Z,4.78
2023-03-19T22:58:28.770Z,4.38
2023-03-19T23:00:55.599Z,6.28
2023-03-19T23:03:27.844Z,6.22
2023-03-19T23:05:57.325Z,5.03
2023-03-19T23:08:24.010Z,4.15
2023-03-19T23:10:50.971Z,5.07
2023-03-19T23:13:17.878Z,5.07
2023-03-19T23:15:47.547Z,7.40
2023-03-19T23:18:17.812Z,5.28
2023-03-19T23:23:12.350Z,5.53
2023-03-19T23:25:39.796Z,7.30
2023-03-19T23:28:06.419Z,5.93
2023-03-19T23:30:33.358Z,5.22
2023-03-19T23:33:02.637Z,4.53
2023-03-19T23:35:30.886Z,4.18
2023-03-19T23:37:58.000Z,6.35
2023-03-19T23:40:26.848Z,6.75
2023-03-19T23:42:55.449Z,4.45
2023-03-19T23:45:31.163Z,5.03
2023-03-19T23:47:58.876Z,5.47
2023-03-19T23:50:26.962Z,5.63
2023-03-19T23:52:53.453Z,4.75
2023-03-19T23:55:20.394Z,4.78
2023-03-19T23:57:47.194Z,4.75
